createdAt,value
2022-09-17T03:30:51.907Z,11.30
2022-09-17T03:33:19.956Z,11.30
2022-09-17T03:35:50.698Z,11.40
2022-09-17T03:38:18.014Z,11.40
2022-09-17T03:40:44.871Z,11.40
2022-09-17T03:43:11.749Z,11.50
2022-09-17T03:45:38.659Z,11.50
2022-09-17T03:48:05.568Z,11.60
2022-09-17T03:50:32.850Z,11.60
2022-09-17T03:53:06.267Z,11.70
2022-09-17T03:55:35.867Z,11.60
2022-09-17T03:58:02.813Z,11.60
2022-09-17T04:00:32.683Z,11.50
2022-09-17T04:02:59.930Z,11.50
2022-09-17T04:05:26.847Z,11.40
2022-09-17T04:08:00.110Z,11.40
2022-09-17T04:10:26.956Z,11.30
2022-09-17T04:12:54.222Z,11.30
2022-09-17T04:15:21.144Z,11.30
2022-09-17T04:17:51.888Z,11.30
2022-09-17T04:20:18.775Z,11.20
2022-09-17T04:22:45.601Z,11.10
2022-09-17T04:25:12.562Z,11.10
2022-09-17T04:27:43.423Z,11.10
2022-09-17T04:30:13.806Z,11.10
2022-09-17T04:32:41.296Z,11.10
2022-09-17T04:35:08.567Z,11.10
2022-09-17T04:37:35.540Z,11.10
2022-09-17T04:40:07.550Z,11.00
2022-09-17T04:42:34.861Z,11.00
2022-09-17T04:45:01.723Z,11.00
2022-09-17T04:47:29.770Z,10.90
2022-09-17T04:49:56.860Z,10.80
2022-09-17T04:52:32.492Z,10.70
2022-09-17T04:54:59.469Z,10.70
2022-09-17T04:57:29.713Z,10.60
2022-09-17T05:00:10.060Z,10.60
2022-09-17T05:02:39.695Z,10.50
2022-09-17T05:05:09.741Z,10.40
2022-09-17T05:07:39.523Z,10.40
2022-09-17T05:10:07.880Z,10.30
2022-09-17T05:12:35.068Z,10.30
2022-09-17T05:15:02.262Z,10.20
2022-09-17T05:17:29.095Z,10.20
2022-09-17T05:19:56.041Z,10.30
2022-09-17T05:22:22.972Z,10.40
2022-09-17T05:24:51.965Z,10.50
2022-09-17T05:27:19.187Z,10.60
2022-09-17T05:29:46.067Z,10.70
2022-09-17T05:32:12.927Z,10.90
2022-09-17T05:34:40.776Z,11.10
2022-09-17T05:37:11.061Z,11.30
2022-09-17T05:39:40.811Z,11.50
2022-09-17T05:42:16.253Z,11.60
2022-09-17T05:44:43.143Z,11.80
2022-09-17T05:47:10.112Z,11.90
2022-09-17T05:49:36.988Z,11.90
2022-09-17T05:52:07.103Z,11.90
2022-09-17T05:54:34.000Z,11.90
2022-09-17T05:57:01.774Z,11.90
2022-09-17T05:59:28.652Z,11.90
2022-09-17T06:01:58.339Z,11.80
2022-09-17T06:04:25.312Z,11.70
2022-09-17T06:06:52.176Z,11.50
2022-09-17T06:09:22.429Z,11.40
2022-09-17T06:11:49.656Z,11.20
2022-09-17T06:14:19.197Z,11.10
2022-09-17T06:16:46.562Z,11.00
2022-09-17T06:19:13.575Z,10.90
2022-09-17T06:21:40.448Z,10.80
2022-09-17T06:24:07.376Z,10.70
2022-09-17T06:26:34.319Z,10.70
2022-09-17T06:29:06.030Z,10.60
2022-09-17T06:31:33.501Z,10.60
2022-09-17T06:34:01.809Z,10.60
2022-09-17T06:36:28.949Z,10.50
2022-09-17T06:38:55.830Z,10.60
2022-09-17T06:41:22.713Z,10.70
2022-09-17T06:43:55.754Z,10.80
2022-09-17T06:46:22.925Z,10.90
2022-09-17T06:48:49.791Z,11.00
2022-09-17T06:51:16.667Z,11.00
2022-09-17T06:53:43.839Z,11.10
2022-09-17T06:56:13.300Z,11.10
2022-09-17T06:58:49.733Z,11.10
2022-09-17T07:01:26.387Z,11.10
2022-09-17T07:03:56.490Z,11.10
2022-09-17T07:06:23.340Z,11.20
2022-09-17T07:08:50.218Z,11.20
2022-09-17T07:11:17.270Z,11.30
2022-09-17T07:13:44.106Z,11.30
2022-09-17T07:16:18.681Z,11.40
2022-09-17T07:18:47.732Z,11.50
2022-09-17T07:21:14.713Z,11.50
2022-09-17T07:23:47.871Z,11.60
2022-09-17T07:26:17.013Z,11.50
2022-09-17T07:28:44.312Z,11.50
2022-09-17T07:31:16.159Z,11.50
2022-09-17T07:33:44.331Z,11.60
2022-09-17T07:36:13.000Z,11.70
2022-09-17T07:38:39.979Z,11.90
2022-09-17T07:41:14.481Z,12.00
2022-09-17T07:43:45.089Z,12.10
2022-09-17T07:46:17.705Z,12.20
2022-09-17T07:48:46.656Z,12.30
2022-09-17T07:51:18.969Z,12.40
2022-09-17T07:53:46.814Z,12.50
2022-09-17T07:56:13.858Z,12.60
2022-09-17T07:58:41.458Z,12.70
2022-09-17T08:01:11.573Z,12.70
2022-09-17T08:03:40.108Z,12.70
2022-09-17T08:06:11.875Z,12.60
2022-09-17T08:08:44.693Z,12.50
2022-09-17T08:11:14.162Z,12.70
2022-09-17T08:13:41.621Z,12.80
2022-09-17T08:16:15.419Z,12.90
2022-09-17T08:18:43.810Z,13.00
2022-09-17T08:21:13.124Z,13.10
2022-09-17T08:23:42.059Z,13.10
2022-09-17T08:26:17.006Z,13.10
2022-09-17T08:28:48.571Z,13.00
2022-09-17T08:31:18.936Z,13.00
2022-09-17T08:33:46.878Z,13.10
2022-09-17T08:36:16.536Z,13.10
2022-09-17T08:38:44.004Z,13.30
2022-09-17T08:41:11.355Z,13.50
2022-09-17T08:44:03.002Z,13.60
2022-09-17T08:46:33.935Z,13.80
2022-09-17T08:49:15.488Z,14.00
2022-09-17T08:52:06.293Z,14.30
2022-09-17T08:54:36.261Z,14.50
2022-09-17T08:57:12.451Z,14.40
2022-09-17T09:00:03.223Z,14.20
2022-09-17T09:02:51.457Z,13.70
2022-09-17T09:05:23.671Z,13.20
2022-09-17T09:08:00.800Z,12.90
2022-09-17T09:10:41.052Z,12.80
2022-09-17T09:13:10.215Z,13.00
2022-09-17T09:15:42.446Z,13.00
2022-09-17T09:18:27.765Z,13.00
2022-09-17T09:21:08.825Z,12.90
2022-09-17T09:23:51.445Z,12.90
2022-09-17T09:26:19.943Z,12.80
2022-09-17T09:29:05.812Z,12.90
2022-09-17T09:31:54.914Z,13.20
2022-09-17T09:34:23.838Z,13.40
2022-09-17T09:36:52.280Z,13.20
2022-09-17T09:39:34.658Z,13.00
2022-09-17T09:42:29.249Z,12.60
2022-09-17T09:45:14.547Z,12.40
2022-09-17T09:47:50.790Z,12.30
2022-09-17T09:51:04.784Z,12.50
2022-09-17T09:53:36.567Z,13.10
2022-09-17T09:56:42.723Z,13.80
2022-09-17T09:59:13.251Z,14.10
2022-09-17T10:01:42.989Z,14.20
2022-09-17T10:04:23.905Z,14.30
2022-09-17T10:06:53.892Z,14.40
2022-09-17T10:09:22.663Z,14.40
2022-09-17T10:12:16.181Z,14.40
2022-09-17T10:14:45.560Z,14.40
2022-09-17T10:17:17.112Z,14.80
2022-09-17T10:19:45.402Z,15.20
2022-09-17T10:22:24.800Z,15.10
2022-09-17T10:24:57.516Z,14.70
2022-09-17T10:27:25.978Z,14.20
2022-09-17T10:30:10.523Z,14.00
2022-09-17T10:33:05.193Z,13.70
2022-09-17T10:35:32.932Z,13.40
2022-09-17T10:37:59.779Z,13.20
2022-09-17T10:40:30.594Z,13.60
2022-09-17T10:43:23.956Z,14.80
2022-09-17T10:45:57.862Z,16.50
2022-09-17T10:48:28.394Z,17.30
2022-09-17T10:50:57.143Z,18.20
2022-09-17T10:53:26.065Z,18.80
2022-09-17T10:56:12.546Z,18.40
2022-09-17T10:58:48.315Z,17.60
2022-09-17T11:01:33.784Z,16.70
2022-09-17T11:04:19.193Z,16.70
2022-09-17T11:07:23.855Z,17.80
2022-09-17T11:09:54.197Z,19.10
2022-09-17T11:12:26.777Z,19.80
2022-09-17T11:15:19.940Z,20.50
2022-09-17T11:18:03.100Z,20.80
2022-09-17T11:20:43.572Z,19.90
2022-09-17T11:23:40.864Z,18.70
2022-09-17T11:26:12.063Z,18.80
2022-09-17T11:29:02.057Z,19.90
2022-09-17T11:31:56.671Z,21.20
2022-09-17T11:34:53.865Z,22.10
2022-09-17T11:37:31.381Z,22.50
2022-09-17T11:40:16.838Z,22.70
2022-09-17T11:42:50.961Z,22.80
2022-09-17T11:45:23.955Z,22.90
2022-09-17T11:48:05.049Z,23.10
2022-09-17T11:50:37.851Z,23.10
2022-09-17T11:53:23.621Z,22.70
2022-09-17T11:56:20.052Z,21.50
2022-09-17T11:59:08.207Z,21.00
2022-09-17T12:01:41.549Z,19.90
2022-09-17T12:04:27.321Z,19.00
2022-09-17T12:07:13.264Z,19.10
2022-09-17T12:09:44.960Z,20.10
2022-09-17T12:12:45.079Z,20.70
2022-09-17T12:15:22.200Z,21.40
2022-09-17T12:18:33.278Z,21.90
2022-09-17T12:21:04.585Z,22.30
2022-09-17T12:23:43.131Z,22.80
2022-09-17T12:26:22.483Z,22.60
2022-09-17T12:28:49.336Z,21.80
2022-09-17T12:31:32.237Z,21.60
2022-09-17T12:34:24.109Z,22.40
2022-09-17T12:37:17.154Z,22.30
2022-09-17T12:40:02.827Z,21.90
2022-09-17T12:42:29.957Z,22.70
2022-09-17T12:45:07.442Z,23.70
2022-09-17T12:47:46.503Z,24.50
2022-09-17T12:50:53.592Z,24.60
2022-09-17T12:53:30.682Z,23.30
2022-09-17T12:56:09.786Z,21.60
2022-09-17T12:58:42.875Z,20.30
2022-09-17T13:01:32.637Z,20.20
2022-09-17T13:04:11.994Z,21.10
2022-09-17T13:07:02.935Z,21.60
2022-09-17T13:09:40.899Z,21.90
2022-09-17T13:12:20.375Z,22.20
2022-09-17T13:15:11.819Z,21.70
2022-09-17T13:18:12.404Z,20.90
2022-09-17T13:21:03.452Z,19.90
2022-09-17T13:23:40.082Z,19.00
2022-09-17T13:26:08.282Z,18.80
2022-09-17T13:28:46.082Z,20.00
2022-09-17T13:31:20.729Z,21.30
2022-09-17T13:33:51.769Z,22.40
2022-09-17T13:36:39.390Z,22.90
2022-09-17T13:39:26.956Z,23.50
2022-09-17T13:42:04.946Z,23.80
2022-09-17T13:44:39.837Z,24.20
2022-09-17T13:47:30.005Z,24.40
2022-09-17T13:50:06.384Z,24.60
2022-09-17T13:52:51.182Z,24.30
2022-09-17T13:55:49.105Z,23.00
2022-09-17T13:58:18.875Z,22.10
2022-09-17T14:01:02.274Z,22.30
2022-09-17T14:03:33.672Z,23.20
2022-09-17T14:06:09.520Z,23.60
2022-09-17T14:08:57.758Z,23.10
2022-09-17T14:11:28.633Z,22.60
2022-09-17T14:13:56.895Z,22.60
2022-09-17T14:16:40.617Z,21.60
2022-09-17T14:19:38.760Z,20.40
2022-09-17T14:22:06.005Z,19.10
2022-09-17T14:24:44.382Z,18.30
2022-09-17T14:27:32.305Z,18.00
2022-09-17T14:30:10.892Z,17.90
2022-09-17T14:32:44.159Z,18.10
2022-09-17T14:35:42.856Z,18.20
2022-09-17T14:38:23.490Z,18.10
2022-09-17T14:41:03.340Z,17.80
2022-09-17T14:43:52.157Z,17.30
2022-09-17T14:46:27.757Z,16.90
2022-09-17T14:48:54.677Z,16.80
2022-09-17T14:51:26.567Z,16.60
2022-09-17T14:54:10.227Z,16.80
2022-09-17T14:56:47.440Z,17.00
2022-09-17T14:59:32.375Z,17.00
2022-09-17T15:01:59.912Z,17.00
2022-09-17T15:04:28.248Z,17.00
2022-09-17T15:07:09.068Z,17.00
2022-09-17T15:09:36.253Z,17.20
2022-09-17T15:12:04.811Z,17.20
2022-09-17T15:14:39.944Z,17.10
2022-09-17T15:17:12.326Z,16.90
2022-09-17T15:19:44.032Z,16.80
2022-09-17T15:22:21.731Z,16.60
2022-09-17T15:24:50.301Z,16.50
2022-09-17T15:27:34.552Z,16.20
2022-09-17T15:30:05.589Z,15.90
2022-09-17T15:32:36.210Z,15.70
2022-09-17T15:35:15.930Z,15.40
2022-09-17T15:38:11.641Z,15.20
2022-09-17T15:40:40.031Z,15.00
2022-09-17T15:43:29.904Z,15.30
2022-09-17T15:46:00.744Z,15.90
2022-09-17T15:48:27.600Z,16.40
2022-09-17T15:50:59.466Z,16.40
2022-09-17T15:53:37.608Z,16.20
2022-09-17T15:56:16.518Z,15.70
2022-09-17T15:58:46.225Z,15.90
2022-09-17T16:01:16.373Z,16.30
2022-09-17T16:03:43.625Z,16.50
2022-09-17T16:06:19.720Z,16.40
2022-09-17T16:08:47.658Z,16.30
2022-09-17T16:11:19.090Z,16.00
2022-09-17T16:13:50.603Z,16.00
2022-09-17T16:16:22.631Z,16.20
2022-09-17T16:18:50.524Z,16.20
2022-09-17T16:21:19.157Z,16.00
2022-09-17T16:23:46.757Z,15.80
2022-09-17T16:26:20.426Z,15.80
2022-09-17T16:28:53.754Z,16.00
2022-09-17T16:31:21.522Z,16.10
2022-09-17T16:33:48.565Z,15.90
2022-09-17T16:36:18.850Z,15.70
2022-09-17T16:38:45.864Z,15.60
2022-09-17T16:41:13.209Z,15.60
2022-09-17T16:43:40.368Z,15.40
2022-09-17T16:46:10.561Z,15.30
2022-09-17T16:48:40.992Z,15.10
2022-09-17T16:51:09.092Z,14.90
2022-09-17T16:53:36.057Z,14.70
2022-09-17T16:56:10.663Z,14.50
2022-09-17T16:58:38.873Z,14.30
2022-09-17T17:01:09.352Z,14.10
2022-09-17T17:03:36.587Z,13.90
2022-09-17T17:06:03.965Z,13.70
2022-09-17T17:08:34.213Z,13.60
2022-09-17T17:11:01.408Z,13.50
2022-09-17T17:13:28.855Z,13.50
2022-09-17T17:15:55.928Z,13.50
2022-09-17T17:18:25.446Z,13.50
2022-09-17T17:20:52.342Z,13.50
2022-09-17T17:23:19.476Z,13.50
2022-09-17T17:25:47.331Z,13.50
2022-09-17T17:28:15.023Z,13.50
2022-09-17T17:30:42.127Z,13.50
2022-09-17T17:33:09.058Z,13.50
2022-09-17T17:35:39.166Z,13.40
2022-09-17T17:38:09.220Z,13.40
2022-09-17T17:40:36.586Z,13.40
2022-09-17T17:43:03.597Z,13.30
2022-09-17T17:45:30.962Z,13.20
2022-09-17T17:47:58.013Z,13.10
2022-09-17T17:50:25.673Z,13.10
2022-09-17T17:52:57.484Z,13.00
2022-09-17T17:55:25.537Z,13.00
2022-09-17T17:58:01.137Z,13.00
2022-09-17T18:00:29.013Z,13.00
2022-09-17T18:02:55.932Z,13.00
2022-09-17T18:05:22.821Z,13.00
2022-09-17T18:07:49.886Z,12.90
2022-09-17T18:10:17.109Z,12.80
2022-09-17T18:12:50.487Z,12.70
2022-09-17T18:18:01.540Z,12.50
2022-09-17T18:20:28.778Z,12.40
2022-09-17T18:22:55.670Z,12.40
2022-09-17T18:25:22.654Z,12.40
2022-09-17T18:28:03.775Z,12.30
2022-09-17T18:30:35.396Z,12.30
2022-09-17T18:33:02.237Z,12.30
2022-09-17T18:35:29.331Z,12.30
2022-09-17T18:37:56.157Z,12.40
2022-09-17T18:40:23.337Z,12.40
2022-09-17T18:42:50.233Z,12.40
2022-09-17T18:45:17.056Z,12.40
2022-09-17T18:47:46.310Z,12.40
2022-09-17T18:50:14.434Z,12.30
2022-09-17T18:52:43.773Z,12.30
2022-09-17T18:55:10.872Z,12.30
2022-09-17T18:57:37.729Z,12.40
2022-09-17T19:00:12.671Z,12.40
2022-09-17T19:02:39.619Z,12.40
2022-09-17T19:05:07.031Z,12.40
2022-09-17T19:07:34.558Z,12.40
2022-09-17T19:10:01.812Z,12.40
2022-09-17T19:12:30.159Z,12.40
2022-09-17T19:15:00.164Z,12.40
2022-09-17T19:17:28.051Z,12.40
2022-09-17T19:19:54.887Z,12.50
2022-09-17T19:22:23.023Z,12.50
2022-09-17T19:24:49.958Z,12.50
2022-09-17T19:27:16.970Z,12.50
2022-09-17T19:29:43.867Z,12.50
2022-09-17T19:32:11.191Z,12.50
2022-09-17T19:34:38.006Z,12.50
2022-09-17T19:37:04.961Z,12.50
2022-09-17T19:39:31.896Z,12.60
2022-09-17T19:41:58.782Z,12.60
2022-09-17T19:44:25.619Z,12.50
2022-09-17T19:46:58.808Z,12.60
2022-09-17T19:49:26.006Z,12.50
2022-09-17T19:51:53.292Z,12.50
2022-09-17T19:54:20.294Z,12.50
2022-09-17T19:56:47.702Z,12.50
2022-09-17T19:59:15.154Z,12.50
2022-09-17T20:01:49.278Z,12.50
2022-09-17T20:04:18.384Z,12.40
2022-09-17T20:06:45.392Z,12.50
2022-09-17T20:09:12.240Z,12.50
2022-09-17T20:11:43.452Z,12.50
2022-09-17T20:14:11.945Z,12.50
2022-09-17T20:16:40.700Z,12.50
2022-09-17T20:19:08.267Z,12.50
2022-09-17T20:21:35.273Z,12.60
2022-09-17T20:24:02.317Z,12.50
2022-09-17T20:26:29.306Z,12.50
2022-09-17T20:28:56.411Z,12.50
2022-09-17T20:31:25.921Z,12.50
2022-09-17T20:33:54.393Z,12.50
2022-09-17T20:36:24.183Z,12.50
2022-09-17T20:39:12.257Z,12.50
2022-09-17T20:41:41.871Z,12.40
2022-09-17T20:44:10.113Z,12.40
2022-09-17T20:46:37.680Z,12.30
2022-09-17T20:49:05.425Z,12.30
2022-09-17T20:51:34.223Z,12.30
2022-09-17T20:54:10.987Z,12.20
2022-09-17T20:56:44.915Z,12.20
2022-09-17T20:59:18.817Z,12.20
2022-09-17T21:01:49.559Z,12.10
2022-09-17T21:04:21.718Z,12.10
2022-09-17T21:06:52.688Z,12.10
2022-09-17T21:09:20.120Z,12.10
2022-09-17T21:11:48.729Z,12.00
2022-09-17T21:14:16.161Z,11.90
2022-09-17T21:16:53.374Z,11.90
2022-09-17T21:19:26.273Z,11.80
2022-09-17T21:22:03.040Z,11.80
2022-09-17T21:24:30.065Z,11.70
2022-09-17T21:26:56.930Z,11.70
2022-09-17T21:29:30.040Z,11.70
2022-09-17T21:32:00.345Z,11.60
2022-09-17T21:34:28.039Z,11.60
2022-09-17T21:36:54.901Z,11.60
2022-09-17T21:39:36.453Z,11.60
2022-09-17T21:42:06.385Z,11.50
2022-09-17T21:44:36.074Z,11.50
2022-09-17T21:47:12.386Z,11.50
2022-09-17T21:49:44.406Z,11.60
2022-09-17T21:52:11.297Z,11.50
2022-09-17T21:54:42.983Z,11.50
2022-09-17T21:57:10.107Z,11.50
2022-09-17T21:59:37.251Z,11.40
2022-09-17T22:04:48.435Z,11.30
2022-09-17T22:07:16.720Z,11.20
2022-09-17T22:09:46.598Z,11.20
2022-09-17T22:12:13.483Z,11.20
2022-09-17T22:14:44.622Z,11.10
2022-09-17T22:17:18.494Z,11.10
2022-09-17T22:19:45.503Z,11.10
2022-09-17T22:22:18.425Z,11.00
2022-09-17T22:24:45.294Z,11.00
2022-09-17T22:27:12.114Z,11.10
2022-09-17T22:29:43.380Z,11.10
2022-09-17T22:32:10.296Z,11.10
2022-09-17T22:34:37.220Z,11.10
2022-09-17T22:37:06.120Z,11.10
2022-09-17T22:39:33.079Z,11.10
2022-09-17T22:41:59.971Z,11.10
2022-09-17T22:44:26.860Z,11.10
2022-09-17T22:46:53.809Z,11.10
2022-09-17T22:49:20.927Z,11.00
2022-09-17T22:51:48.591Z,11.00
2022-09-17T22:54:17.901Z,11.00
2022-09-17T22:56:45.434Z,11.00
2022-09-17T22:59:13.113Z,10.90
2022-09-17T23:01:41.157Z,10.90
2022-09-17T23:04:08.477Z,10.90
2022-09-17T23:06:42.141Z,10.80
2022-09-17T23:09:09.541Z,10.80
2022-09-17T23:11:39.086Z,10.80
2022-09-17T23:14:09.595Z,10.80
2022-09-17T23:16:45.511Z,10.80
2022-09-17T23:19:13.953Z,10.80
2022-09-17T23:21:41.384Z,10.80
2022-09-17T23:24:09.855Z,10.90
2022-09-17T23:26:37.010Z,10.90
2022-09-17T23:29:05.578Z,11.00
2022-09-17T23:31:35.244Z,11.00
2022-09-17T23:34:04.259Z,11.00
2022-09-17T23:36:35.163Z,11.00
2022-09-17T23:39:03.030Z,11.00
2022-09-17T23:41:33.227Z,11.00
2022-09-17T23:44:02.868Z,10.90
2022-09-17T23:46:32.796Z,10.90
2022-09-17T23:49:00.180Z,10.90
2022-09-17T23:51:30.963Z,10.90
2022-09-17T23:53:59.151Z,10.90
2022-09-17T23:56:27.908Z,10.90
2022-09-17T23:58:56.683Z,10.90
